Time;durP1;ratioP1;P1;durP2;ratioP2;P2;SDS_P1;SDS_P2;PMS_P1;PMS_P2;Temp;Humidity;BMP_temperature;BMP_pressure;BME280_temperature;BME280_humidity;BME280_pressure;Samples;Min_cycle;Max_cycle;Signal;HPM_P1;HPM_P2
2023/04/27 00:01:48;;;;;;;4.83;3.40;;;9.70;69.90;;;;;;5062635;28;20181;-76
2023/04/27 00:04:15;;;;;;;6.07;3.57;;;9.70;69.90;;;;;;5058462;28;20188;-76
2023/04/27 00:06:41;;;;;;;10.10;4.40;;;9.60;69.80;;;;;;5057464;28;20447;-77
2023/04/27 00:09:07;;;;;;;6.80;3.40;;;9.60;69.90;;;;;;5036119;28;20520;-76
2023/04/27 00:11:32;;;;;;;6.73;3.90;;;9.60;70.50;;;;;;5055552;28;20431;-76
2023/04/27 00:13:58;;;;;;;10.23;4.53;;;9.60;70.50;;;;;;5055381;28;20200;-76
2023/04/27 00:16:24;;;;;;;8.80;4.97;;;9.70;70.40;;;;;;5055508;28;20187;-76
2023/04/27 00:18:49;;;;;;;6.47;3.77;;;9.60;70.20;;;;;;5036184;28;20319;-76
2023/04/27 00:21:15;;;;;;;7.37;3.73;;;9.60;70.10;;;;;;5055267;28;20415;-76
2023/04/27 00:23:41;;;;;;;5.20;3.70;;;9.50;70.20;;;;;;5054941;28;20188;-76
2023/04/27 00:26:06;;;;;;;8.07;3.47;;;9.50;69.80;;;;;;5055080;28;20188;-76
2023/04/27 00:28:32;;;;;;;9.50;4.50;;;9.50;69.50;;;;;;5052716;28;20219;-76
2023/04/27 00:30:57;;;;;;;7.30;3.80;;;9.40;69.70;;;;;;5063569;28;20616;-75
2023/04/27 00:33:23;;;;;;;5.83;4.03;;;9.40;69.70;;;;;;5063636;28;20212;-75
2023/04/27 00:35:48;;;;;;;4.13;3.43;;;9.40;69.90;;;;;;5054639;28;20192;-75
2023/04/27 00:38:14;;;;;;;10.53;3.87;;;9.50;70.80;;;;;;5034453;28;20204;-76
2023/04/27 00:40:40;;;;;;;8.60;4.40;;;9.60;70.80;;;;;;5054443;28;20636;-76
2023/04/27 00:43:05;;;;;;;4.93;3.73;;;9.60;71.00;;;;;;5054900;28;20231;-75
2023/04/27 00:45:31;;;;;;;6.67;4.20;;;9.50;70.70;;;;;;5055098;28;20560;-76
2023/04/27 00:47:58;;;;;;;8.27;3.83;;;9.40;70.70;;;;;;5049582;28;20212;-75
2023/04/27 00:50:29;;;;;;;6.40;3.40;;;9.40;70.70;;;;;;5054003;28;20191;-73
2023/04/27 00:52:55;;;;;;;6.07;4.10;;;9.40;70.80;;;;;;5055451;28;20458;-74
2023/04/27 00:55:22;;;;;;;5.53;3.70;;;9.40;70.80;;;;;;5055931;28;20434;-73
2023/04/27 00:57:47;;;;;;;8.43;4.93;;;9.50;71.00;;;;;;5050093;28;20232;-74
2023/04/27 01:00:14;;;;;;;7.07;3.60;;;9.50;71.10;;;;;;5057581;28;20419;-74
2023/04/27 01:02:40;;;;;;;6.30;4.60;;;9.50;71.30;;;;;;5065114;28;20542;-74
2023/04/27 01:05:07;;;;;;;9.00;4.27;;;9.60;71.10;;;;;;5067781;28;20423;-75
2023/04/27 01:07:36;;;;;;;8.20;4.20;;;9.50;71.00;;;;;;5065478;28;20462;-74
2023/04/27 01:10:02;;;;;;;7.10;4.47;;;9.50;71.30;;;;;;5043408;28;20995;-74
2023/04/27 01:12:28;;;;;;;9.37;4.27;;;9.50;71.30;;;;;;5064675;28;20412;-75
2023/04/27 01:14:53;;;;;;;8.67;4.50;;;9.50;71.30;;;;;;5064496;28;20429;-75
2023/04/27 01:17:19;;;;;;;7.60;4.80;;;9.50;71.40;;;;;;5063924;28;20291;-74
2023/04/27 01:19:45;;;;;;;7.43;3.97;;;9.40;71.40;;;;;;5060141;28;20177;-75
2023/04/27 01:22:10;;;;;;;6.47;3.67;;;9.40;71.30;;;;;;5054643;28;20560;-73
2023/04/27 01:24:36;;;;;;;9.93;4.43;;;9.30;71.10;;;;;;5036056;28;20184;-74
2023/04/27 01:27:02;;;;;;;6.90;4.30;;;9.30;71.40;;;;;;5053614;28;20177;-74
2023/04/27 01:29:28;;;;;;;5.87;4.37;;;9.20;71.80;;;;;;5048024;28;20205;-74
2023/04/27 01:31:54;;;;;;;8.40;3.77;;;9.30;71.80;;;;;;5035524;28;20466;-74
2023/04/27 01:34:20;;;;;;;14.73;5.10;;;9.30;71.80;;;;;;5052684;28;20230;-73
2023/04/27 01:36:45;;;;;;;11.53;4.37;;;9.30;72.10;;;;;;5056228;28;20976;-74
2023/04/27 01:39:11;;;;;;;11.07;4.07;;;9.20;72.40;;;;;;5052883;28;20691;-74
2023/04/27 01:41:36;;;;;;;9.93;4.73;;;9.20;72.60;;;;;;5039184;28;20195;-75
2023/04/27 01:44:02;;;;;;;6.77;3.17;;;9.20;72.60;;;;;;5056082;28;20259;-75
2023/04/27 01:46:28;;;;;;;4.93;3.67;;;9.20;72.70;;;;;;5054080;28;20279;-74
2023/04/27 01:48:53;;;;;;;7.23;4.27;;;9.20;72.70;;;;;;5032204;28;20748;-74
2023/04/27 01:51:19;;;;;;;6.57;3.70;;;9.20;72.90;;;;;;5052539;28;20286;-75
2023/04/27 01:53:45;;;;;;;7.57;4.50;;;9.10;73.00;;;;;;5052207;28;20227;-75
2023/04/27 01:56:10;;;;;;;8.60;4.77;;;9.10;73.00;;;;;;5052650;28;20462;-75
2023/04/27 01:58:36;;;;;;;7.20;4.53;;;9.20;73.00;;;;;;5045068;28;20616;-74
2023/04/27 02:01:01;;;;;;;9.40;4.40;;;9.20;73.20;;;;;;5052853;28;20216;-74
2023/04/27 02:03:27;;;;;;;8.30;4.50;;;9.10;73.20;;;;;;5052603;28;20271;-75
2023/04/27 02:05:52;;;;;;;9.43;4.33;;;9.00;73.00;;;;;;5052319;28;20193;-74
2023/04/27 02:08:18;;;;;;;8.80;4.97;;;9.00;73.20;;;;;;5046016;28;20215;-75
2023/04/27 02:10:44;;;;;;;8.80;4.80;;;9.00;73.30;;;;;;5050819;28;20202;-75
2023/04/27 02:13:09;;;;;;;7.40;4.70;;;9.00;73.50;;;;;;5034259;28;20208;-74
2023/04/27 02:15:35;;;;;;;8.83;4.60;;;9.00;73.50;;;;;;5051729;28;20184;-73
2023/04/27 02:18:02;;;;;;;9.00;4.73;;;8.90;73.20;;;;;;5048438;28;20196;-74
2023/04/27 02:20:30;;;;;;;7.33;4.27;;;8.90;73.00;;;;;;5034434;28;20600;-74
2023/04/27 02:22:55;;;;;;;7.90;4.40;;;8.90;73.00;;;;;;5052415;28;20469;-73
2023/04/27 02:25:21;;;;;;;5.90;3.83;;;8.90;73.00;;;;;;5052470;28;20411;-74
2023/04/27 02:27:47;;;;;;;8.33;4.40;;;8.90;73.00;;;;;;5047674;28;20201;-75
2023/04/27 02:30:12;;;;;;;7.30;4.23;;;8.90;73.20;;;;;;5049432;28;20644;-74
2023/04/27 02:32:38;;;;;;;9.30;5.27;;;8.80;73.30;;;;;;5053156;28;20188;-72
2023/04/27 02:35:04;;;;;;;8.63;4.67;;;8.80;73.50;;;;;;5060185;28;20423;-73
2023/04/27 02:37:30;;;;;;;11.60;5.43;;;8.80;73.50;;;;;;5043479;28;20189;-74
2023/04/27 02:39:56;;;;;;;6.50;4.30;;;8.80;73.50;;;;;;5064629;28;20420;-74
2023/04/27 02:42:21;;;;;;;9.30;4.73;;;8.80;73.30;;;;;;5063481;28;20236;-73
2023/04/27 02:44:47;;;;;;;7.80;5.27;;;8.90;73.50;;;;;;5062336;28;20286;-74
2023/04/27 02:47:13;;;;;;;9.70;5.00;;;8.80;73.50;;;;;;5042830;28;20184;-74
2023/04/27 02:49:39;;;;;;;6.60;4.70;;;8.80;73.60;;;;;;5055207;28;20192;-73
2023/04/27 02:52:05;;;;;;;8.30;4.87;;;8.80;73.70;;;;;;5058203;28;20302;-74
2023/04/27 02:54:30;;;;;;;7.40;5.37;;;8.80;73.70;;;;;;5057042;28;20470;-75
2023/04/27 02:56:56;;;;;;;10.40;5.73;;;8.70;73.90;;;;;;5057705;28;20452;-74
2023/04/27 02:59:21;;;;;;;10.83;5.60;;;8.70;74.00;;;;;;5032168;28;20226;-74
2023/04/27 03:01:47;;;;;;;9.00;5.33;;;8.60;74.30;;;;;;5053900;28;20189;-75
2023/04/27 03:04:13;;;;;;;11.90;5.77;;;8.70;74.30;;;;;;5035986;28;20184;-74
2023/04/27 03:06:42;;;;;;;13.43;5.80;;;8.80;74.30;;;;;;5055752;28;20196;-75
2023/04/27 03:09:11;;;;;;;10.13;5.90;;;8.80;74.20;;;;;;5049184;28;20465;-75
2023/04/27 03:11:37;;;;;;;8.40;5.40;;;8.90;74.00;;;;;;5052166;28;20439;-75
2023/04/27 03:14:03;;;;;;;9.40;5.83;;;9.00;74.00;;;;;;5051912;28;20829;-75
2023/04/27 03:16:32;;;;;;;12.37;6.20;;;9.00;73.90;;;;;;5051985;28;20197;-74
2023/04/27 03:18:58;;;;;;;10.03;5.50;;;9.00;73.90;;;;;;5049664;28;20976;-75
2023/04/27 03:21:23;;;;;;;7.20;4.83;;;8.90;73.90;;;;;;5050929;28;20415;-74
2023/04/27 03:23:49;;;;;;;8.00;5.10;;;8.90;73.90;;;;;;5051117;28;20314;-75
2023/04/27 03:26:15;;;;;;;9.63;5.70;;;8.90;73.90;;;;;;5033463;28;20191;-74
2023/04/27 03:28:41;;;;;;;13.20;5.70;;;9.00;73.70;;;;;;5043600;28;20222;-75
2023/04/27 03:31:08;;;;;;;11.53;5.93;;;9.00;73.70;;;;;;5033639;28;20184;-74
2023/04/27 03:33:35;;;;;;;13.70;6.83;;;9.00;73.70;;;;;;5051173;28;20214;-75
2023/04/27 03:36:01;;;;;;;9.90;5.63;;;9.00;73.70;;;;;;5051073;28;20518;-73
2023/04/27 03:38:27;;;;;;;10.80;6.00;;;9.00;73.70;;;;;;5045578;28;20462;-76
2023/04/27 03:40:53;;;;;;;8.33;5.43;;;9.00;73.70;;;;;;5052665;28;20430;-75
2023/04/27 03:43:20;;;;;;;7.90;5.67;;;9.00;73.90;;;;;;5051243;28;20442;-74
2023/04/27 03:45:46;;;;;;;10.23;6.37;;;9.00;73.90;;;;;;5034626;28;20430;-75
2023/04/27 03:48:13;;;;;;;11.00;5.43;;;9.00;74.00;;;;;;5046969;28;20974;-75
2023/04/27 03:50:39;;;;;;;10.07;6.60;;;9.00;74.00;;;;;;5050666;28;20437;-75
2023/04/27 03:53:05;;;;;;;10.40;6.40;;;9.00;74.00;;;;;;5051324;28;20478;-75
2023/04/27 03:55:31;;;;;;;13.63;6.17;;;8.90;74.20;;;;;;5051430;28;20423;-75
2023/04/27 03:57:57;;;;;;;9.90;6.10;;;9.00;74.20;;;;;;5028426;28;20839;-74
2023/04/27 04:00:23;;;;;;;10.87;5.93;;;9.00;74.20;;;;;;5050508;28;20184;-75
2023/04/27 04:02:48;;;;;;;11.67;7.70;;;8.90;74.20;;;;;;5050706;28;20940;-74
2023/04/27 04:05:14;;;;;;;11.27;6.43;;;9.00;74.30;;;;;;5050932;28;20709;-75
2023/04/27 04:07:42;;;;;;;11.13;6.00;;;8.90;74.60;;;;;;5046508;28;20200;-74
2023/04/27 04:10:09;;;;;;;10.30;5.70;;;8.90;74.80;;;;;;5048651;28;20276;-74
2023/04/27 04:12:35;;;;;;;8.00;5.87;;;8.90;74.90;;;;;;5033291;28;20506;-74
2023/04/27 04:15:02;;;;;;;11.40;6.10;;;8.90;75.10;;;;;;5050895;28;20557;-74
2023/04/27 04:17:27;;;;;;;7.93;5.53;;;8.90;75.10;;;;;;5049162;28;20918;-75
2023/04/27 04:19:53;;;;;;;9.80;6.37;;;8.90;74.80;;;;;;5050264;28;20477;-74
2023/04/27 04:22:19;;;;;;;8.93;6.33;;;8.90;74.60;;;;;;5051124;28;20698;-74
2023/04/27 04:24:44;;;;;;;10.30;6.63;;;8.80;74.60;;;;;;5051052;28;20192;-74
2023/04/27 04:27:10;;;;;;;9.37;5.70;;;8.90;74.60;;;;;;5051212;28;20223;-75
2023/04/27 04:29:36;;;;;;;9.30;6.20;;;8.90;74.30;;;;;;5031111;28;20576;-74
2023/04/27 04:32:02;;;;;;;9.27;6.00;;;8.80;74.30;;;;;;5050347;28;20265;-74
2023/04/27 04:34:28;;;;;;;9.30;6.30;;;8.80;74.20;;;;;;5053969;28;20545;-75
2023/04/27 04:36:56;;;;;;;9.73;6.53;;;8.90;74.60;;;;;;5054798;28;20192;-76
2023/04/27 04:39:22;;;;;;;10.53;5.90;;;8.90;74.60;;;;;;5046168;28;20537;-74
2023/04/27 04:41:48;;;;;;;9.13;6.23;;;8.90;74.30;;;;;;5054515;28;20421;-74
2023/04/27 04:44:14;;;;;;;9.10;5.23;;;8.90;74.60;;;;;;5054570;28;20439;-74
2023/04/27 04:46:40;;;;;;;12.20;6.70;;;8.90;74.30;;;;;;5054511;28;20429;-74
2023/04/27 04:49:06;;;;;;;11.70;6.60;;;8.90;74.60;;;;;;5047437;28;20829;-74
2023/04/27 04:51:32;;;;;;;11.40;7.13;;;8.90;74.90;;;;;;5039485;28;20423;-74
2023/04/27 04:53:57;;;;;;;12.73;6.10;;;8.90;75.20;;;;;;5056438;28;20505;-74
2023/04/27 04:56:23;;;;;;;12.57;7.00;;;9.00;75.20;;;;;;5056436;28;20181;-75
2023/04/27 04:58:49;;;;;;;16.80;7.10;;;9.00;75.10;;;;;;5048242;28;20250;-75
2023/04/27 05:01:14;;;;;;;11.60;7.07;;;9.10;74.60;;;;;;5036233;28;20234;-75
2023/04/27 05:03:40;;;;;;;8.60;5.97;;;9.10;74.50;;;;;;5053570;28;20184;-75
2023/04/27 05:06:06;;;;;;;13.97;6.33;;;9.20;74.20;;;;;;5036215;28;20181;-76
2023/04/27 05:08:31;;;;;;;10.30;6.70;;;9.20;73.90;;;;;;5048785;28;20303;-74
2023/04/27 05:10:57;;;;;;;10.87;6.30;;;9.20;73.60;;;;;;5036011;28;20220;-74
2023/04/27 05:13:25;;;;;;;10.43;7.10;;;9.20;73.50;;;;;;5053703;28;20218;-75
2023/04/27 05:15:51;;;;;;;14.27;6.90;;;9.30;73.30;;;;;;5053705;28;20717;-74
2023/04/27 05:18:17;;;;;;;9.43;6.20;;;9.30;73.50;;;;;;5050822;28;20451;-75
2023/04/27 05:20:43;;;;;;;11.80;6.90;;;9.40;73.50;;;;;;5053497;28;20177;-75
2023/04/27 05:23:08;;;;;;;14.10;6.90;;;9.50;73.50;;;;;;5053672;28;20929;-76
2023/04/27 05:25:40;;;;;;;10.43;6.63;;;9.50;73.30;;;;;;5054288;28;20193;-74
2023/04/27 05:28:07;;;;;;;8.53;6.40;;;9.60;73.30;;;;;;5057246;28;20212;-75
2023/04/27 05:30:33;;;;;;;23.23;7.50;;;9.70;73.20;;;;;;5058622;28;20521;-74
2023/04/27 05:32:58;;;;;;;11.93;7.70;;;9.80;73.00;;;;;;5058393;28;20554;-75
2023/04/27 05:35:24;;;;;;;14.80;7.50;;;9.90;72.60;;;;;;5064821;28;20259;-74
2023/04/27 05:37:50;;;;;;;10.70;7.10;;;10.00;72.10;;;;;;5055534;28;20696;-74
2023/04/27 05:40:15;;;;;;;14.57;7.80;;;10.00;72.00;;;;;;5055439;28;20262;-75
2023/04/27 05:42:41;;;;;;;12.20;7.63;;;10.10;72.00;;;;;;5054730;28;20328;-75
2023/04/27 05:45:07;;;;;;;13.10;8.37;;;10.00;72.10;;;;;;5055064;28;20295;-75
2023/04/27 05:47:32;;;;;;;15.17;8.70;;;10.00;72.30;;;;;;5052445;28;20215;-74
2023/04/27 05:49:58;;;;;;;12.83;8.50;;;9.90;72.60;;;;;;5048292;28;20411;-75
2023/04/27 05:52:29;;;;;;;13.40;7.90;;;9.90;72.90;;;;;;5036408;28;20246;-75
2023/04/27 05:54:55;;;;;;;17.70;8.53;;;9.90;72.90;;;;;;5048039;28;20205;-75
2023/04/27 05:57:21;;;;;;;12.80;8.77;;;9.80;72.70;;;;;;5031895;28;20434;-75
2023/04/27 05:59:47;;;;;;;12.77;8.23;;;9.90;72.90;;;;;;5047320;28;20439;-74
2023/04/27 06:02:12;;;;;;;21.83;8.77;;;10.00;72.60;;;;;;5053457;28;20188;-74
2023/04/27 06:04:38;;;;;;;18.57;9.43;;;10.10;72.40;;;;;;5053297;28;20574;-75
2023/04/27 06:07:11;;;;;;;22.77;9.00;;;10.20;72.10;;;;;;5053858;28;20181;-74
2023/04/27 06:09:37;;;;;;;14.17;8.63;;;10.30;72.00;;;;;;5050618;28;20240;-75
2023/04/27 06:12:06;;;;;;;15.43;8.50;;;10.30;71.60;;;;;;5035539;28;20898;-75
2023/04/27 06:14:36;;;;;;;20.80;9.03;;;10.30;71.30;;;;;;5052833;28;21036;-74
2023/04/27 06:17:02;;;;;;;16.30;8.27;;;10.40;71.30;;;;;;5035805;28;20449;-76
2023/04/27 06:19:28;;;;;;;13.47;8.57;;;10.50;71.60;;;;;;5050409;28;20455;-74
2023/04/27 06:21:54;;;;;;;15.93;8.23;;;10.60;71.40;;;;;;5035380;28;20510;-76
2023/04/27 06:24:21;;;;;;;15.33;8.60;;;10.80;71.10;;;;;;5035174;28;20242;-76
2023/04/27 06:26:49;;;;;;;13.43;8.30;;;10.90;70.70;;;;;;5035019;28;20507;-75
2023/04/27 06:29:15;;;;;;;13.17;8.87;;;11.10;70.20;;;;;;5047422;28;20822;-74
2023/04/27 06:31:41;;;;;;;12.13;7.90;;;11.20;69.90;;;;;;5053090;28;20430;-75
2023/04/27 06:34:06;;;;;;;15.47;9.57;;;11.40;69.40;;;;;;5055730;28;20211;-76
2023/04/27 06:36:32;;;;;;;16.47;8.97;;;11.50;68.80;;;;;;5059018;28;20692;-75
2023/04/27 06:38:58;;;;;;;161.80;25.17;;;11.60;68.30;;;;;;5039159;28;20208;-76
2023/04/27 06:41:25;;;;;;;28.53;10.60;;;11.70;68.00;;;;;;5059569;28;20189;-74
2023/04/27 06:43:52;;;;;;;20.63;9.37;;;11.80;67.60;;;;;;5060687;28;20477;-74
2023/04/27 06:46:18;;;;;;;20.97;9.63;;;11.80;67.50;;;;;;5064641;28;20427;-74
2023/04/27 06:48:43;;;;;;;19.00;9.30;;;11.80;67.60;;;;;;5061740;28;20466;-75
2023/04/27 06:51:09;;;;;;;16.43;9.53;;;11.90;67.90;;;;;;5065461;28;20438;-74
2023/04/27 06:53:35;;;;;;;25.83;10.23;;;12.00;67.90;;;;;;5065466;28;20216;-75
2023/04/27 06:56:01;;;;;;;23.03;9.37;;;12.00;67.50;;;;;;5064876;28;20495;-74
2023/04/27 06:58:26;;;;;;;13.40;9.17;;;11.90;67.60;;;;;;5063591;28;20227;-75
2023/04/27 07:00:52;;;;;;;18.73;10.13;;;11.90;67.70;;;;;;5065217;28;20184;-76
2023/04/27 07:03:19;;;;;;;13.70;9.93;;;11.90;68.00;;;;;;5065064;28;20203;-75
2023/04/27 07:05:45;;;;;;;20.67;10.00;;;11.80;68.20;;;;;;5064893;28;20425;-75
2023/04/27 07:08:11;;;;;;;17.53;10.03;;;11.80;68.50;;;;;;5061874;28;20458;-75
2023/04/27 07:10:37;;;;;;;16.67;9.30;;;12.00;68.00;;;;;;5065560;28;20449;-74
2023/04/27 07:13:03;;;;;;;17.50;9.30;;;12.10;67.90;;;;;;5064422;28;20479;-73
2023/04/27 07:15:30;;;;;;;17.47;9.30;;;12.30;67.20;;;;;;5063241;28;20192;-73
2023/04/27 07:17:55;;;;;;;15.40;8.90;;;12.40;66.70;;;;;;5059601;28;20215;-76
2023/04/27 07:20:22;;;;;;;20.57;10.50;;;12.60;66.30;;;;;;5061153;28;20423;-75
2023/04/27 07:22:47;;;;;;;17.30;9.50;;;12.60;65.80;;;;;;5061193;28;20188;-72
2023/04/27 07:25:13;;;;;;;14.90;8.87;;;12.60;66.00;;;;;;5063444;28;20495;-71
2023/04/27 07:27:40;;;;;;;16.07;9.57;;;12.60;66.30;;;;;;5045217;28;20205;-74
2023/04/27 07:30:08;;;;;;;16.47;9.20;;;12.60;66.00;;;;;;5064272;28;20251;-71
2023/04/27 07:32:37;;;;;;;15.20;9.27;;;12.70;66.30;;;;;;5067455;28;20945;-72
2023/04/27 07:35:04;;;;;;;17.70;9.10;;;12.70;65.70;;;;;;5060353;28;20467;-73
2023/04/27 07:37:30;;;;;;;15.37;8.87;;;12.60;65.60;;;;;;5031639;28;20445;-73
2023/04/27 07:39:56;;;;;;;13.70;7.77;;;12.70;65.30;;;;;;5048596;28;20431;-74
2023/04/27 07:42:22;;;;;;;19.03;8.90;;;12.70;65.30;;;;;;5051287;28;20589;-73
2023/04/27 07:44:49;;;;;;;12.57;7.87;;;12.80;65.10;;;;;;5051442;28;20529;-73
2023/04/27 07:47:15;;;;;;;13.27;8.13;;;12.90;64.70;;;;;;5051421;28;20198;-73
2023/04/27 07:49:40;;;;;;;11.87;7.80;;;12.90;64.70;;;;;;5033649;28;20504;-72
2023/04/27 07:52:06;;;;;;;11.87;8.00;;;12.90;64.20;;;;;;5034954;28;20439;-74
2023/04/27 07:54:31;;;;;;;12.30;7.20;;;12.90;63.70;;;;;;5049511;28;20229;-74
2023/04/27 07:56:57;;;;;;;15.93;7.93;;;13.00;63.80;;;;;;5030184;28;20193;-72
2023/04/27 07:59:23;;;;;;;13.80;6.73;;;13.20;61.60;;;;;;5047682;28;20204;-73
2023/04/27 08:01:48;;;;;;;12.63;6.73;;;13.10;61.30;;;;;;5045423;28;20185;-73
2023/04/27 08:04:14;;;;;;;136.63;24.50;;;13.20;60.30;;;;;;5053125;28;20200;-73
2023/04/27 08:06:40;;;;;;;21.50;7.50;;;13.20;60.60;;;;;;5055079;28;20250;-72
2023/04/27 08:09:06;;;;;;;15.10;6.97;;;13.20;60.10;;;;;;5055696;28;20466;-72
2023/04/27 08:11:32;;;;;;;43.67;11.10;;;13.10;60.10;;;;;;5058267;28;20181;-71
2023/04/27 08:13:58;;;;;;;15.70;6.60;;;13.20;60.40;;;;;;5058599;28;20462;-73
2023/04/27 08:16:23;;;;;;;10.77;5.80;;;13.30;60.00;;;;;;5055740;28;20208;-72
2023/04/27 08:18:49;;;;;;;11.60;6.90;;;13.30;58.70;;;;;;5055783;28;20996;-71
2023/04/27 08:21:15;;;;;;;7.70;5.77;;;13.30;59.50;;;;;;5057900;28;20268;-74
2023/04/27 08:23:41;;;;;;;16.20;6.67;;;13.30;59.50;;;;;;5056110;28;20520;-75
2023/04/27 08:26:06;;;;;;;10.30;6.17;;;13.40;59.70;;;;;;5052919;28;20189;-73
2023/04/27 08:28:32;;;;;;;13.90;5.40;;;13.50;60.40;;;;;;5055169;28;21052;-74
2023/04/27 08:30:58;;;;;;;12.33;8.60;;;13.60;60.40;;;;;;5056396;28;20793;-74
2023/04/27 08:33:24;;;;;;;11.47;6.77;;;13.70;60.90;;;;;;5057701;28;20258;-73
2023/04/27 08:35:52;;;;;;;6.87;4.37;;;13.80;59.90;;;;;;5057835;28;20419;-73
2023/04/27 08:38:18;;;;;;;10.20;4.77;;;13.90;56.60;;;;;;5049082;28;20582;-72
2023/04/27 08:40:43;;;;;;;6.47;4.13;;;13.90;56.90;;;;;;5035700;28;20488;-74
2023/04/27 08:43:09;;;;;;;19.20;5.97;;;13.90;56.10;;;;;;5054362;28;20439;-73
2023/04/27 08:45:35;;;;;;;13.57;6.03;;;13.90;56.90;;;;;;5052711;28;20607;-74
2023/04/27 08:48:01;;;;;;;5.90;4.27;;;14.00;57.30;;;;;;5049722;28;20300;-74
2023/04/27 08:50:26;;;;;;;10.30;5.40;;;14.00;56.10;;;;;;5052771;28;20506;-74
2023/04/27 08:52:52;;;;;;;12.83;6.10;;;14.10;56.40;;;;;;5052689;28;20265;-73
2023/04/27 08:55:18;;;;;;;11.60;6.83;;;14.20;57.70;;;;;;5054247;28;20185;-73
2023/04/27 08:57:56;;;;;;;14.33;6.33;;;14.20;58.40;;;;;;5034688;28;21158;-74
2023/04/27 09:00:26;;;;;;;12.27;7.17;;;14.30;59.70;;;;;;5050038;28;20411;-74
2023/04/27 09:02:52;;;;;;;15.33;7.90;;;14.40;59.90;;;;;;5054294;28;20767;-74
2023/04/27 09:05:19;;;;;;;13.53;7.10;;;14.50;59.70;;;;;;5036066;28;20442;-74
2023/04/27 09:08:04;;;;;;;10.13;6.00;;;14.50;58.00;;;;;;5052451;28;20834;-74
2023/04/27 09:10:41;;;;;;;9.90;6.60;;;14.60;58.00;;;;;;5036559;28;20485;-72
2023/04/27 09:13:07;;;;;;;12.67;6.53;;;14.70;57.40;;;;;;5057389;28;20476;-74
2023/04/27 09:15:47;;;;;;;12.40;7.00;;;14.70;58.10;;;;;;5057938;28;20491;-74
2023/04/27 09:18:16;;;;;;;17.13;7.90;;;14.80;57.80;;;;;;5054382;28;20229;-74
2023/04/27 09:20:43;;;;;;;12.17;8.03;;;14.70;57.80;;;;;;5041545;28;20423;-73
2023/04/27 09:23:09;;;;;;;13.80;7.47;;;14.80;58.10;;;;;;5056254;28;20419;-75
2023/04/27 09:25:34;;;;;;;12.27;6.77;;;14.90;58.00;;;;;;5053310;28;20434;-74
2023/04/27 09:28:00;;;;;;;13.20;6.30;;;15.10;57.00;;;;;;5047144;28;20205;-73
2023/04/27 09:30:27;;;;;;;10.47;6.60;;;15.30;56.80;;;;;;5049675;28;20187;-76
2023/04/27 09:33:00;;;;;;;13.63;6.73;;;15.40;54.90;;;;;;5049754;28;21636;-74
2023/04/27 09:35:28;;;;;;;11.77;7.13;;;15.40;54.80;;;;;;5049018;28;20619;-74
2023/04/27 09:37:54;;;;;;;15.33;6.57;;;15.40;54.20;;;;;;5048448;28;20463;-74
2023/04/27 09:40:28;;;;;;;13.73;6.47;;;15.30;53.60;;;;;;5049543;28;20423;-76
2023/04/27 09:43:00;;;;;;;10.80;5.90;;;15.30;53.70;;;;;;5051562;28;20436;-74
2023/04/27 09:45:26;;;;;;;11.77;6.23;;;15.30;54.10;;;;;;5034823;28;20441;-77
2023/04/27 09:47:52;;;;;;;13.40;6.97;;;15.20;54.40;;;;;;5048343;28;20539;-76
2023/04/27 09:50:17;;;;;;;12.00;6.83;;;15.30;54.40;;;;;;5032602;28;20319;-76
2023/04/27 09:52:45;;;;;;;8.90;6.13;;;15.30;53.80;;;;;;5054160;28;20905;-73
2023/04/27 09:55:16;;;;;;;12.90;6.20;;;15.20;54.40;;;;;;5052329;28;20227;-74
2023/04/27 09:58:12;;;;;;;14.27;6.67;;;15.20;53.70;;;;;;5031393;28;20473;-75
2023/04/27 10:00:55;;;;;;;15.70;6.10;;;15.20;53.70;;;;;;5050875;28;20462;-75
2023/04/27 10:03:29;;;;;;;10.00;5.73;;;15.20;53.70;;;;;;5052597;28;20414;-76
2023/04/27 10:06:10;;;;;;;8.97;5.83;;;15.50;53.80;;;;;;5050423;28;20427;-76
2023/04/27 10:08:37;;;;;;;12.03;6.90;;;15.70;53.00;;;;;;5047545;28;20467;-74
2023/04/27 10:11:18;;;;;;;10.30;7.00;;;15.70;52.50;;;;;;5053657;28;20430;-75
2023/04/27 10:13:54;;;;;;;11.43;6.10;;;15.60;52.10;;;;;;5052236;28;20469;-75
2023/04/27 10:16:20;;;;;;;14.07;6.20;;;15.50;53.00;;;;;;5052851;28;20421;-76
2023/04/27 10:18:55;;;;;;;9.17;6.13;;;15.60;52.50;;;;;;5050255;28;20534;-75
2023/04/27 10:21:22;;;;;;;14.03;6.67;;;15.90;52.80;;;;;;5052453;28;20430;-75
2023/04/27 10:23:50;;;;;;;11.73;7.03;;;15.90;52.40;;;;;;5051674;28;20945;-75
2023/04/27 10:26:26;;;;;;;10.50;5.90;;;16.20;51.30;;;;;;5052115;28;20538;-76
2023/04/27 10:29:09;;;;;;;17.30;6.47;;;16.40;51.20;;;;;;5045075;28;20461;-75
2023/04/27 10:31:34;;;;;;;8.93;5.03;;;16.70;50.70;;;;;;5051183;28;20930;-75
2023/04/27 10:34:10;;;;;;;19.40;6.40;;;17.10;50.30;;;;;;5051401;28;20524;-75
2023/04/27 10:36:39;;;;;;;12.73;6.60;;;17.40;48.20;;;;;;5048478;28;20180;-75
2023/04/27 10:39:21;;;;;;;11.80;6.40;;;17.20;47.80;;;;;;5031301;28;20548;-75
2023/04/27 10:41:52;;;;;;;10.23;6.80;;;16.90;48.70;;;;;;5045793;28;20734;-75
2023/04/27 10:44:23;;;;;;;18.37;11.23;;;16.90;49.00;;;;;;5048463;28;20546;-75
2023/04/27 10:46:51;;;;;;;11.27;7.10;;;17.20;49.00;;;;;;5046937;28;20954;-74
2023/04/27 10:49:16;;;;;;;75.33;14.43;;;17.70;48.10;;;;;;5044143;28;20976;-75
2023/04/27 10:51:42;;;;;;;10.70;6.50;;;18.10;47.30;;;;;;5050498;28;20437;-74
2023/04/27 10:54:07;;;;;;;14.47;6.60;;;18.40;45.90;;;;;;5049924;28;20215;-74
2023/04/27 10:56:33;;;;;;;10.40;6.67;;;18.30;45.80;;;;;;5049954;28;20193;-73
2023/04/27 10:59:04;;;;;;;13.63;6.47;;;18.10;46.60;;;;;;5030444;28;20234;-75
2023/04/27 11:01:29;;;;;;;7.97;5.80;;;17.80;46.70;;;;;;5046583;28;20186;-74
2023/04/27 11:03:56;;;;;;;11.00;6.80;;;17.90;46.30;;;;;;5051461;28;20476;-75
2023/04/27 11:06:22;;;;;;;13.70;5.87;;;17.90;46.20;;;;;;5034435;28;20189;-74
2023/04/27 11:08:47;;;;;;;9.53;6.10;;;18.20;46.10;;;;;;5047845;28;20472;-73
2023/04/27 11:11:15;;;;;;;16.40;7.10;;;18.40;45.40;;;;;;5054099;28;20179;-75
2023/04/27 11:13:42;;;;;;;12.00;7.20;;;18.70;45.40;;;;;;5053864;28;20208;-75
2023/04/27 11:16:08;;;;;;;10.97;6.03;;;18.50;44.90;;;;;;5054526;28;20429;-75
2023/04/27 11:18:36;;;;;;;14.83;6.40;;;18.40;45.00;;;;;;5050242;28;20468;-75
2023/04/27 11:21:16;;;;;;;11.53;6.43;;;18.00;45.80;;;;;;5032488;28;20539;-74
2023/04/27 11:23:42;;;;;;;9.70;6.00;;;18.00;46.30;;;;;;5048773;28;20585;-75
2023/04/27 11:26:10;;;;;;;9.47;5.53;;;18.30;44.70;;;;;;5050033;28;20423;-73
2023/04/27 11:28:35;;;;;;;14.63;6.30;;;18.50;44.60;;;;;;5046467;28;20470;-74
2023/04/27 11:31:03;;;;;;;9.90;5.50;;;18.50;43.80;;;;;;5051542;28;20449;-75
2023/04/27 11:33:28;;;;;;;6.53;5.07;;;18.20;44.60;;;;;;5050198;28;20215;-74
2023/04/27 11:35:55;;;;;;;11.00;6.67;;;18.20;44.70;;;;;;5051802;28;20431;-74
2023/04/27 11:38:20;;;;;;;14.57;7.27;;;18.30;45.90;;;;;;5047569;28;20674;-75
2023/04/27 11:40:57;;;;;;;12.57;7.10;;;18.00;46.20;;;;;;5049943;28;20428;-74
2023/04/27 11:43:25;;;;;;;10.70;6.90;;;17.40;47.50;;;;;;5049950;28;20208;-75
2023/04/27 11:45:52;;;;;;;12.67;6.07;;;17.50;48.10;;;;;;5050047;28;20427;-75
2023/04/27 11:48:19;;;;;;;11.70;6.93;;;17.70;47.70;;;;;;5030344;28;20511;-74
2023/04/27 11:50:48;;;;;;;11.77;6.03;;;18.20;46.60;;;;;;5050202;28;20827;-74
2023/04/27 11:53:14;;;;;;;12.83;6.57;;;18.70;45.50;;;;;;5033268;28;20469;-75
2023/04/27 11:55:51;;;;;;;11.13;6.57;;;19.00;44.60;;;;;;5033963;28;20423;-74
2023/04/27 11:58:16;;;;;;;13.97;6.93;;;19.10;44.50;;;;;;5038740;28;20219;-73
2023/04/27 12:00:42;;;;;;;13.63;6.80;;;18.80;44.10;;;;;;5049004;28;20448;-75
2023/04/27 12:03:08;;;;;;;10.40;6.17;;;18.70;44.20;;;;;;5050367;28;20183;-75
2023/04/27 12:05:34;;;;;;;19.07;7.40;;;18.50;45.10;;;;;;5050615;28;20338;-75
2023/04/27 12:08:00;;;;;;;14.23;6.60;;;18.20;45.40;;;;;;5027597;28;20259;-72
2023/04/27 12:10:26;;;;;;;10.23;6.30;;;18.00;45.90;;;;;;5048447;28;21004;-74
2023/04/27 12:12:52;;;;;;;9.20;7.03;;;18.00;46.30;;;;;;5049757;28;20448;-74
2023/04/27 12:15:18;;;;;;;13.27;7.10;;;17.90;46.10;;;;;;5049933;28;20185;-74
2023/04/27 12:17:43;;;;;;;8.87;6.10;;;18.20;45.40;;;;;;5046849;28;20210;-74
2023/04/27 12:20:10;;;;;;;13.13;6.23;;;18.70;44.30;;;;;;5049405;28;20337;-73
2023/04/27 12:22:36;;;;;;;10.33;6.33;;;19.00;44.60;;;;;;5049868;28;20192;-75
2023/04/27 12:25:01;;;;;;;16.83;7.13;;;19.40;43.80;;;;;;5050105;28;20792;-74
2023/04/27 12:27:27;;;;;;;10.67;7.00;;;19.50;43.70;;;;;;5048663;28;20420;-75
2023/04/27 12:29:53;;;;;;;13.83;6.17;;;19.30;43.20;;;;;;5047749;28;20192;-72
2023/04/27 12:32:19;;;;;;;13.63;6.30;;;19.20;43.70;;;;;;5049858;28;20191;-73
2023/04/27 12:34:45;;;;;;;12.77;7.63;;;19.00;44.70;;;;;;5049733;28;20200;-75
2023/04/27 12:37:11;;;;;;;11.87;6.07;;;18.80;44.30;;;;;;5049332;28;20441;-74
2023/04/27 12:39:36;;;;;;;13.83;6.60;;;18.50;45.00;;;;;;5045139;28;20516;-73
2023/04/27 12:42:02;;;;;;;19.87;7.73;;;18.70;45.40;;;;;;5053098;28;20184;-75
2023/04/27 12:44:28;;;;;;;12.43;7.33;;;19.30;43.80;;;;;;5051816;28;20211;-74